sensor_id;sensor_type;location;lat;lon;timestamp;P1;durP1;ratioP1;P2;durP2;ratioP2
14292;SDS011;62290;59.420;17.842;2023-04-25T00:00:24;2.78;;;1.00;;
14292;SDS011;62290;59.420;17.842;2023-04-25T00:02:54;1.90;;;1.10;;
14292;SDS011;62290;59.420;17.842;2023-04-25T00:05:23;1.63;;;0.90;;
14292;SDS011;62290;59.420;17.842;2023-04-25T00:07:53;1.35;;;1.23;;
14292;SDS011;62290;59.420;17.842;2023-04-25T00:10:21;1.17;;;1.00;;
14292;SDS011;62290;59.420;17.842;2023-04-25T00:12:49;3.13;;;1.08;;
14292;SDS011;62290;59.420;17.842;2023-04-25T00:15:18;2.78;;;1.17;;
14292;SDS011;62290;59.420;17.842;2023-04-25T00:17:46;2.33;;;1.00;;
14292;SDS011;62290;59.420;17.842;2023-04-25T00:20:15;1.80;;;1.00;;
14292;SDS011;62290;59.420;17.842;2023-04-25T00:22:43;2.05;;;1.10;;
14292;SDS011;62290;59.420;17.842;2023-04-25T00:25:11;1.30;;;1.20;;
14292;SDS011;62290;59.420;17.842;2023-04-25T00:27:39;1.75;;;1.20;;
14292;SDS011;62290;59.420;17.842;2023-04-25T00:30:08;1.98;;;1.15;;
14292;SDS011;62290;59.420;17.842;2023-04-25T00:32:37;1.13;;;1.02;;
14292;SDS011;62290;59.420;17.842;2023-04-25T00:35:05;1.67;;;0.98;;
14292;SDS011;62290;59.420;17.842;2023-04-25T00:37:35;1.45;;;1.20;;
14292;SDS011;62290;59.420;17.842;2023-04-25T00:40:04;2.45;;;1.20;;
14292;SDS011;62290;59.420;17.842;2023-04-25T00:42:34;1.42;;;1.10;;
14292;SDS011;62290;59.420;17.842;2023-04-25T00:45:04;1.77;;;1.25;;
14292;SDS011;62290;59.420;17.842;2023-04-25T00:47:34;1.15;;;1.00;;
14292;SDS011;62290;59.420;17.842;2023-04-25T00:50:04;4.25;;;1.13;;
14292;SDS011;62290;59.420;17.842;2023-04-25T00:52:34;1.30;;;1.20;;
14292;SDS011;62290;59.420;17.842;2023-04-25T00:55:03;1.40;;;1.30;;
14292;SDS011;62290;59.420;17.842;2023-04-25T00:57:31;1.55;;;1.00;;
14292;SDS011;62290;59.420;17.842;2023-04-25T00:59:59;1.25;;;0.90;;
14292;SDS011;62290;59.420;17.842;2023-04-25T01:02:28;2.17;;;1.02;;
14292;SDS011;62290;59.420;17.842;2023-04-25T01:04:57;3.63;;;1.20;;
14292;SDS011;62290;59.420;17.842;2023-04-25T01:07:25;3.47;;;1.33;;
14292;SDS011;62290;59.420;17.842;2023-04-25T01:09:55;1.50;;;1.20;;
14292;SDS011;62290;59.420;17.842;2023-04-25T01:12:23;1.00;;;0.90;;
14292;SDS011;62290;59.420;17.842;2023-04-25T01:14:51;1.17;;;0.93;;
14292;SDS011;62290;59.420;17.842;2023-04-25T01:17:19;2.92;;;1.15;;
14292;SDS011;62290;59.420;17.842;2023-04-25T01:19:48;1.30;;;1.00;;
14292;SDS011;62290;59.420;17.842;2023-04-25T01:22:19;2.03;;;1.05;;
14292;SDS011;62290;59.420;17.842;2023-04-25T01:24:47;1.42;;;1.05;;
14292;SDS011;62290;59.420;17.842;2023-04-25T01:27:15;1.13;;;0.95;;
14292;SDS011;62290;59.420;17.842;2023-04-25T01:29:44;1.75;;;1.33;;
14292;SDS011;62290;59.420;17.842;2023-04-25T01:32:13;1.70;;;1.00;;
14292;SDS011;62290;59.420;17.842;2023-04-25T01:34:42;1.52;;;1.17;;
14292;SDS011;62290;59.420;17.842;2023-04-25T01:37:10;1.27;;;1.02;;
14292;SDS011;62290;59.420;17.842;2023-04-25T01:39:39;1.50;;;1.00;;
14292;SDS011;62290;59.420;17.842;2023-04-25T01:42:08;1.15;;;1.05;;
14292;SDS011;62290;59.420;17.842;2023-04-25T01:44:36;1.17;;;0.88;;
14292;SDS011;62290;59.420;17.842;2023-04-25T01:47:04;1.10;;;0.90;;
14292;SDS011;62290;59.420;17.842;2023-04-25T01:49:32;1.02;;;0.93;;
14292;SDS011;62290;59.420;17.842;2023-04-25T01:52:00;1.50;;;1.20;;
14292;SDS011;62290;59.420;17.842;2023-04-25T01:54:29;1.10;;;0.98;;
14292;SDS011;62290;59.420;17.842;2023-04-25T01:56:58;1.00;;;0.90;;
14292;SDS011;62290;59.420;17.842;2023-04-25T01:59:28;1.05;;;0.95;;
14292;SDS011;62290;59.420;17.842;2023-04-25T02:02:15;2.25;;;0.98;;
14292;SDS011;62290;59.420;17.842;2023-04-25T02:04:43;1.15;;;0.93;;
14292;SDS011;62290;59.420;17.842;2023-04-25T02:07:12;1.17;;;1.08;;
14292;SDS011;62290;59.420;17.842;2023-04-25T02:09:51;1.08;;;0.95;;
14292;SDS011;62290;59.420;17.842;2023-04-25T02:12:23;1.73;;;1.10;;
14292;SDS011;62290;59.420;17.842;2023-04-25T02:15:11;1.10;;;0.95;;
14292;SDS011;62290;59.420;17.842;2023-04-25T02:17:43;0.85;;;0.85;;
14292;SDS011;62290;59.420;17.842;2023-04-25T02:20:11;0.93;;;0.82;;
14292;SDS011;62290;59.420;17.842;2023-04-25T02:22:40;1.02;;;0.70;;
14292;SDS011;62290;59.420;17.842;2023-04-25T02:25:08;0.57;;;0.57;;
14292;SDS011;62290;59.420;17.842;2023-04-25T02:27:39;0.90;;;0.63;;
14292;SDS011;62290;59.420;17.842;2023-04-25T02:30:07;1.33;;;0.90;;
14292;SDS011;62290;59.420;17.842;2023-04-25T02:32:36;0.93;;;0.82;;
14292;SDS011;62290;59.420;17.842;2023-04-25T02:35:04;1.27;;;0.80;;
14292;SDS011;62290;59.420;17.842;2023-04-25T02:37:33;1.33;;;0.63;;
14292;SDS011;62290;59.420;17.842;2023-04-25T02:40:02;0.73;;;0.73;;
14292;SDS011;62290;59.420;17.842;2023-04-25T02:42:31;1.17;;;0.77;;
14292;SDS011;62290;59.420;17.842;2023-04-25T02:45:01;1.00;;;0.80;;
14292;SDS011;62290;59.420;17.842;2023-04-25T02:47:29;0.55;;;0.55;;
14292;SDS011;62290;59.420;17.842;2023-04-25T02:49:58;0.73;;;0.68;;
14292;SDS011;62290;59.420;17.842;2023-04-25T02:52:26;1.77;;;0.70;;
14292;SDS011;62290;59.420;17.842;2023-04-25T02:55:02;0.68;;;0.68;;
14292;SDS011;62290;59.420;17.842;2023-04-25T02:57:31;0.43;;;0.43;;
14292;SDS011;62290;59.420;17.842;2023-04-25T03:00:00;1.00;;;0.50;;
14292;SDS011;62290;59.420;17.842;2023-04-25T03:02:30;0.52;;;0.52;;
14292;SDS011;62290;59.420;17.842;2023-04-25T03:04:58;0.75;;;0.57;;
14292;SDS011;62290;59.420;17.842;2023-04-25T03:07:27;0.63;;;0.52;;
14292;SDS011;62290;59.420;17.842;2023-04-25T03:09:55;0.77;;;0.77;;
14292;SDS011;62290;59.420;17.842;2023-04-25T03:12:24;0.50;;;0.50;;
14292;SDS011;62290;59.420;17.842;2023-04-25T03:14:52;0.82;;;0.45;;
14292;SDS011;62290;59.420;17.842;2023-04-25T03:17:22;0.50;;;0.50;;
14292;SDS011;62290;59.420;17.842;2023-04-25T03:19:50;0.63;;;0.63;;
14292;SDS011;62290;59.420;17.842;2023-04-25T03:22:18;0.90;;;0.50;;
14292;SDS011;62290;59.420;17.842;2023-04-25T03:24:46;0.60;;;0.50;;
14292;SDS011;62290;59.420;17.842;2023-04-25T03:27:14;0.50;;;0.50;;
14292;SDS011;62290;59.420;17.842;2023-04-25T03:29:42;0.60;;;0.60;;
14292;SDS011;62290;59.420;17.842;2023-04-25T03:32:11;0.50;;;0.50;;
14292;SDS011;62290;59.420;17.842;2023-04-25T03:34:40;0.70;;;0.60;;
14292;SDS011;62290;59.420;17.842;2023-04-25T03:37:08;0.50;;;0.50;;
14292;SDS011;62290;59.420;17.842;2023-04-25T03:39:37;0.63;;;0.50;;
14292;SDS011;62290;59.420;17.842;2023-04-25T03:42:06;0.50;;;0.45;;
14292;SDS011;62290;59.420;17.842;2023-04-25T03:44:34;0.50;;;0.43;;
14292;SDS011;62290;59.420;17.842;2023-04-25T03:47:02;1.65;;;0.50;;
14292;SDS011;62290;59.420;17.842;2023-04-25T03:49:31;2.10;;;0.60;;
14292;SDS011;62290;59.420;17.842;2023-04-25T03:52:03;0.68;;;0.60;;
14292;SDS011;62290;59.420;17.842;2023-04-25T03:54:37;0.40;;;0.40;;
14292;SDS011;62290;59.420;17.842;2023-04-25T03:57:17;0.40;;;0.40;;
14292;SDS011;62290;59.420;17.842;2023-04-25T03:59:46;1.40;;;0.50;;
14292;SDS011;62290;59.420;17.842;2023-04-25T04:02:14;0.40;;;0.40;;
14292;SDS011;62290;59.420;17.842;2023-04-25T04:04:43;0.43;;;0.43;;
14292;SDS011;62290;59.420;17.842;2023-04-25T04:07:14;0.45;;;0.38;;
14292;SDS011;62290;59.420;17.842;2023-04-25T04:09:48;0.57;;;0.50;;
14292;SDS011;62290;59.420;17.842;2023-04-25T04:12:24;0.50;;;0.50;;
14292;SDS011;62290;59.420;17.842;2023-04-25T04:14:53;0.38;;;0.32;;
14292;SDS011;62290;59.420;17.842;2023-04-25T04:17:21;0.50;;;0.50;;
14292;SDS011;62290;59.420;17.842;2023-04-25T04:19:50;0.30;;;0.30;;
14292;SDS011;62290;59.420;17.842;2023-04-25T04:22:20;0.30;;;0.30;;
14292;SDS011;62290;59.420;17.842;2023-04-25T04:24:51;1.08;;;0.30;;
14292;SDS011;62290;59.420;17.842;2023-04-25T04:27:37;0.30;;;0.30;;
14292;SDS011;62290;59.420;17.842;2023-04-25T04:30:21;0.20;;;0.20;;
14292;SDS011;62290;59.420;17.842;2023-04-25T04:32:57;0.30;;;0.30;;
14292;SDS011;62290;59.420;17.842;2023-04-25T04:35:25;0.30;;;0.30;;
14292;SDS011;62290;59.420;17.842;2023-04-25T04:37:54;0.43;;;0.40;;
14292;SDS011;62290;59.420;17.842;2023-04-25T04:40:25;0.38;;;0.32;;
14292;SDS011;62290;59.420;17.842;2023-04-25T04:43:03;0.82;;;0.30;;
14292;SDS011;62290;59.420;17.842;2023-04-25T04:45:42;0.30;;;0.30;;
14292;SDS011;62290;59.420;17.842;2023-04-25T04:48:31;0.30;;;0.30;;
14292;SDS011;62290;59.420;17.842;2023-04-25T04:51:19;0.40;;;0.40;;
14292;SDS011;62290;59.420;17.842;2023-04-25T04:53:54;0.40;;;0.30;;
14292;SDS011;62290;59.420;17.842;2023-04-25T04:56:49;0.40;;;0.32;;
14292;SDS011;62290;59.420;17.842;2023-04-25T04:59:25;0.35;;;0.32;;
14292;SDS011;62290;59.420;17.842;2023-04-25T05:02:11;0.60;;;0.50;;
14292;SDS011;62290;59.420;17.842;2023-04-25T05:04:50;0.35;;;0.25;;
14292;SDS011;62290;59.420;17.842;2023-04-25T05:07:24;0.20;;;0.20;;
14292;SDS011;62290;59.420;17.842;2023-04-25T05:10:05;0.40;;;0.40;;
14292;SDS011;62290;59.420;17.842;2023-04-25T05:13:00;0.63;;;0.30;;
14292;SDS011;62290;59.420;17.842;2023-04-25T05:15:43;0.38;;;0.30;;
14292;SDS011;62290;59.420;17.842;2023-04-25T05:18:34;0.50;;;0.40;;
14292;SDS011;62290;59.420;17.842;2023-04-25T05:21:28;0.60;;;0.35;;
14292;SDS011;62290;59.420;17.842;2023-04-25T05:24:18;0.52;;;0.40;;
14292;SDS011;62290;59.420;17.842;2023-04-25T05:27:02;0.40;;;0.40;;
14292;SDS011;62290;59.420;17.842;2023-04-25T05:30:03;0.40;;;0.30;;
14292;SDS011;62290;59.420;17.842;2023-04-25T05:32:48;0.95;;;0.40;;
14292;SDS011;62290;59.420;17.842;2023-04-25T05:35:17;0.68;;;0.43;;
14292;SDS011;62290;59.420;17.842;2023-04-25T05:37:47;0.93;;;0.50;;
14292;SDS011;62290;59.420;17.842;2023-04-25T05:40:15;1.02;;;0.50;;
14292;SDS011;62290;59.420;17.842;2023-04-25T05:42:45;1.75;;;0.73;;
14292;SDS011;62290;59.420;17.842;2023-04-25T05:45:19;0.52;;;0.47;;
14292;SDS011;62290;59.420;17.842;2023-04-25T05:48:25;4.43;;;0.60;;
14292;SDS011;62290;59.420;17.842;2023-04-25T05:51:16;1.50;;;0.63;;
14292;SDS011;62290;59.420;17.842;2023-04-25T05:54:05;0.80;;;0.50;;
14292;SDS011;62290;59.420;17.842;2023-04-25T05:56:34;1.30;;;0.75;;
14292;SDS011;62290;59.420;17.842;2023-04-25T05:59:03;3.80;;;0.80;;
14292;SDS011;62290;59.420;17.842;2023-04-25T06:01:31;0.75;;;0.63;;
14292;SDS011;62290;59.420;17.842;2023-04-25T06:03:59;0.85;;;0.73;;
14292;SDS011;62290;59.420;17.842;2023-04-25T06:06:28;1.02;;;0.70;;
14292;SDS011;62290;59.420;17.842;2023-04-25T06:08:58;0.70;;;0.70;;
14292;SDS011;62290;59.420;17.842;2023-04-25T06:11:26;0.52;;;0.50;;
14292;SDS011;62290;59.420;17.842;2023-04-25T06:13:54;1.83;;;0.70;;
14292;SDS011;62290;59.420;17.842;2023-04-25T06:16:24;1.20;;;0.73;;
14292;SDS011;62290;59.420;17.842;2023-04-25T06:18:53;0.70;;;0.55;;
14292;SDS011;62290;59.420;17.842;2023-04-25T06:21:21;0.98;;;0.60;;
14292;SDS011;62290;59.420;17.842;2023-04-25T06:23:50;0.75;;;0.45;;
14292;SDS011;62290;59.420;17.842;2023-04-25T06:26:22;0.80;;;0.60;;
14292;SDS011;62290;59.420;17.842;2023-04-25T06:28:51;1.20;;;0.60;;
14292;SDS011;62290;59.420;17.842;2023-04-25T06:31:19;1.48;;;0.70;;
14292;SDS011;62290;59.420;17.842;2023-04-25T06:33:49;1.25;;;0.50;;
14292;SDS011;62290;59.420;17.842;2023-04-25T06:36:23;1.73;;;0.70;;
14292;SDS011;62290;59.420;17.842;2023-04-25T06:38:55;0.68;;;0.50;;
14292;SDS011;62290;59.420;17.842;2023-04-25T06:41:23;1.27;;;0.57;;
14292;SDS011;62290;59.420;17.842;2023-04-25T06:43:53;2.83;;;0.90;;
14292;SDS011;62290;59.420;17.842;2023-04-25T06:46:26;1.77;;;0.73;;
14292;SDS011;62290;59.420;17.842;2023-04-25T06:48:58;0.60;;;0.60;;
14292;SDS011;62290;59.420;17.842;2023-04-25T06:51:26;0.82;;;0.60;;
14292;SDS011;62290;59.420;17.842;2023-04-25T06:53:56;1.65;;;0.75;;
14292;SDS011;62290;59.420;17.842;2023-04-25T06:56:30;1.60;;;0.80;;
14292;SDS011;62290;59.420;17.842;2023-04-25T06:59:06;1.92;;;0.77;;
14292;SDS011;62290;59.420;17.842;2023-04-25T07:01:37;3.17;;;0.63;;
14292;SDS011;62290;59.420;17.842;2023-04-25T07:04:11;1.52;;;0.90;;
14292;SDS011;62290;59.420;17.842;2023-04-25T07:06:45;4.90;;;0.60;;
14292;SDS011;62290;59.420;17.842;2023-04-25T07:09:17;4.22;;;0.95;;
14292;SDS011;62290;59.420;17.842;2023-04-25T07:11:47;5.80;;;0.60;;
14292;SDS011;62290;59.420;17.842;2023-04-25T07:14:16;3.55;;;1.02;;
14292;SDS011;62290;59.420;17.842;2023-04-25T07:16:44;1.75;;;0.68;;
14292;SDS011;62290;59.420;17.842;2023-04-25T07:19:14;3.53;;;0.80;;
14292;SDS011;62290;59.420;17.842;2023-04-25T07:21:42;2.15;;;0.60;;
14292;SDS011;62290;59.420;17.842;2023-04-25T07:24:11;4.57;;;0.75;;
14292;SDS011;62290;59.420;17.842;2023-04-25T07:26:43;2.78;;;0.68;;
14292;SDS011;62290;59.420;17.842;2023-04-25T07:29:34;0.98;;;0.60;;
14292;SDS011;62290;59.420;17.842;2023-04-25T07:32:04;1.42;;;0.80;;
14292;SDS011;62290;59.420;17.842;2023-04-25T07:34:33;2.67;;;0.65;;
14292;SDS011;62290;59.420;17.842;2023-04-25T07:37:03;2.53;;;0.70;;
14292;SDS011;62290;59.420;17.842;2023-04-25T07:39:39;1.15;;;0.95;;
14292;SDS011;62290;59.420;17.842;2023-04-25T07:42:08;3.30;;;0.90;;
14292;SDS011;62290;59.420;17.842;2023-04-25T07:44:39;4.38;;;0.80;;
14292;SDS011;62290;59.420;17.842;2023-04-25T07:47:11;1.08;;;0.60;;
14292;SDS011;62290;59.420;17.842;2023-04-25T07:49:41;1.35;;;0.90;;
14292;SDS011;62290;59.420;17.842;2023-04-25T07:52:09;4.43;;;0.73;;
14292;SDS011;62290;59.420;17.842;2023-04-25T07:54:41;1.40;;;0.75;;
14292;SDS011;62290;59.420;17.842;2023-04-25T07:57:15;1.95;;;0.60;;
14292;SDS011;62290;59.420;17.842;2023-04-25T07:59:46;1.02;;;0.70;;
14292;SDS011;62290;59.420;17.842;2023-04-25T08:02:14;4.70;;;0.60;;
14292;SDS011;62290;59.420;17.842;2023-04-25T08:04:45;2.45;;;0.60;;
14292;SDS011;62290;59.420;17.842;2023-04-25T08:07:16;0.50;;;0.40;;
14292;SDS011;62290;59.420;17.842;2023-04-25T08:09:49;1.50;;;0.70;;
14292;SDS011;62290;59.420;17.842;2023-04-25T08:12:23;0.52;;;0.50;;
14292;SDS011;62290;59.420;17.842;2023-04-25T08:14:52;1.75;;;0.70;;
14292;SDS011;62290;59.420;17.842;2023-04-25T08:17:22;1.85;;;1.02;;
14292;SDS011;62290;59.420;17.842;2023-04-25T08:19:52;1.77;;;0.80;;
14292;SDS011;62290;59.420;17.842;2023-04-25T08:22:25;2.67;;;0.90;;
14292;SDS011;62290;59.420;17.842;2023-04-25T08:25:09;1.58;;;0.75;;
14292;SDS011;62290;59.420;17.842;2023-04-25T08:27:39;8.48;;;0.70;;
14292;SDS011;62290;59.420;17.842;2023-04-25T08:30:08;1.33;;;0.65;;
14292;SDS011;62290;59.420;17.842;2023-04-25T08:32:38;1.38;;;0.77;;
14292;SDS011;62290;59.420;17.842;2023-04-25T08:35:42;0.73;;;0.65;;
14292;SDS011;62290;59.420;17.842;2023-04-25T08:38:10;1.13;;;0.60;;
14292;SDS011;62290;59.420;17.842;2023-04-25T08:40:39;1.02;;;0.68;;
14292;SDS011;62290;59.420;17.842;2023-04-25T08:43:12;1.42;;;0.70;;
14292;SDS011;62290;59.420;17.842;2023-04-25T08:45:41;1.98;;;1.13;;
14292;SDS011;62290;59.420;17.842;2023-04-25T08:48:15;2.97;;;0.70;;
14292;SDS011;62290;59.420;17.842;2023-04-25T08:50:49;5.57;;;1.15;;
14292;SDS011;62290;59.420;17.842;2023-04-25T08:53:21;3.72;;;0.93;;
14292;SDS011;62290;59.420;17.842;2023-04-25T08:55:55;5.60;;;1.20;;
14292;SDS011;62290;59.420;17.842;2023-04-25T08:58:25;2.08;;;1.00;;
14292;SDS011;62290;59.420;17.842;2023-04-25T09:00:53;4.95;;;1.20;;
14292;SDS011;62290;59.420;17.842;2023-04-25T09:03:24;2.20;;;0.93;;
14292;SDS011;62290;59.420;17.842;2023-04-25T09:05:56;2.47;;;1.30;;
14292;SDS011;62290;59.420;17.842;2023-04-25T09:08:24;1.60;;;1.10;;
14292;SDS011;62290;59.420;17.842;2023-04-25T09:10:52;1.38;;;1.00;;
14292;SDS011;62290;59.420;17.842;2023-04-25T09:13:24;230.02;;;114.68;;
14292;SDS011;62290;59.420;17.842;2023-04-25T09:16:10;175.02;;;98.50;;
14292;SDS011;62290;59.420;17.842;2023-04-25T09:19:01;129.65;;;72.88;;
14292;SDS011;62290;59.420;17.842;2023-04-25T09:21:32;92.20;;;55.40;;
14292;SDS011;62290;59.420;17.842;2023-04-25T09:24:03;69.85;;;40.70;;
14292;SDS011;62290;59.420;17.842;2023-04-25T09:26:32;74.07;;;42.60;;
14292;SDS011;62290;59.420;17.842;2023-04-25T09:29:04;73.90;;;36.58;;
14292;SDS011;62290;59.420;17.842;2023-04-25T09:31:36;57.47;;;30.63;;
14292;SDS011;62290;59.420;17.842;2023-04-25T09:34:06;49.90;;;26.73;;
14292;SDS011;62290;59.420;17.842;2023-04-25T09:36:44;204.07;;;95.03;;
14292;SDS011;62290;59.420;17.842;2023-04-25T09:39:15;575.53;;;325.27;;
14292;SDS011;62290;59.420;17.842;2023-04-25T09:41:53;1045.22;;;634.67;;
14292;SDS011;62290;59.420;17.842;2023-04-25T09:44:22;975.28;;;613.90;;
14292;SDS011;62290;59.420;17.842;2023-04-25T09:46:52;984.90;;;617.00;;
14292;SDS011;62290;59.420;17.842;2023-04-25T09:49:24;1002.08;;;616.67;;
14292;SDS011;62290;59.420;17.842;2023-04-25T09:52:03;997.67;;;617.25;;
14292;SDS011;62290;59.420;17.842;2023-04-25T09:54:43;1030.07;;;641.85;;
14292;SDS011;62290;59.420;17.842;2023-04-25T09:57:16;893.50;;;569.25;;
14292;SDS011;62290;59.420;17.842;2023-04-25T09:59:46;765.28;;;494.50;;
14292;SDS011;62290;59.420;17.842;2023-04-25T10:02:17;671.08;;;429.45;;
14292;SDS011;62290;59.420;17.842;2023-04-25T10:04:49;582.83;;;367.77;;
14292;SDS011;62290;59.420;17.842;2023-04-25T10:07:35;505.05;;;301.38;;
14292;SDS011;62290;59.420;17.842;2023-04-25T10:10:08;471.05;;;271.80;;
14292;SDS011;62290;59.420;17.842;2023-04-25T10:12:40;433.70;;;240.52;;
14292;SDS011;62290;59.420;17.842;2023-04-25T10:15:10;403.13;;;218.95;;
14292;SDS011;62290;59.420;17.842;2023-04-25T10:17:39;369.23;;;196.75;;
14292;SDS011;62290;59.420;17.842;2023-04-25T10:20:08;332.63;;;169.80;;
14292;SDS011;62290;59.420;17.842;2023-04-25T10:22:39;324.52;;;167.93;;
14292;SDS011;62290;59.420;17.842;2023-04-25T10:25:09;277.77;;;148.00;;
14292;SDS011;62290;59.420;17.842;2023-04-25T10:27:38;249.60;;;131.50;;
14292;SDS011;62290;59.420;17.842;2023-04-25T10:30:07;238.32;;;127.25;;
14292;SDS011;62290;59.420;17.842;2023-04-25T10:32:39;214.45;;;112.18;;
14292;SDS011;62290;59.420;17.842;2023-04-25T10:35:10;228.18;;;113.45;;
14292;SDS011;62290;59.420;17.842;2023-04-25T10:40:30;182.68;;;95.53;;
14292;SDS011;62290;59.420;17.842;2023-04-25T10:45:59;135.85;;;75.57;;
14292;SDS011;62290;59.420;17.842;2023-04-25T10:48:28;128.85;;;69.43;;
14292;SDS011;62290;59.420;17.842;2023-04-25T10:51:09;123.95;;;66.07;;
14292;SDS011;62290;59.420;17.842;2023-04-25T10:53:38;116.25;;;60.85;;
14292;SDS011;62290;59.420;17.842;2023-04-25T10:56:10;103.95;;;59.20;;
14292;SDS011;62290;59.420;17.842;2023-04-25T10:58:43;481.90;;;266.40;;
14292;SDS011;62290;59.420;17.842;2023-04-25T11:01:12;732.47;;;417.42;;
14292;SDS011;62290;59.420;17.842;2023-04-25T11:03:41;632.95;;;357.38;;
14292;SDS011;62290;59.420;17.842;2023-04-25T11:06:15;542.22;;;302.52;;
14292;SDS011;62290;59.420;17.842;2023-04-25T11:08:51;480.35;;;246.80;;
14292;SDS011;62290;59.420;17.842;2023-04-25T11:11:19;408.15;;;193.80;;
14292;SDS011;62290;59.420;17.842;2023-04-25T11:13:48;331.38;;;155.35;;
14292;SDS011;62290;59.420;17.842;2023-04-25T11:16:17;289.02;;;137.63;;
14292;SDS011;62290;59.420;17.842;2023-04-25T11:18:53;261.52;;;118.18;;
14292;SDS011;62290;59.420;17.842;2023-04-25T11:21:24;208.55;;;101.97;;
14292;SDS011;62290;59.420;17.842;2023-04-25T11:23:55;187.45;;;90.82;;
14292;SDS011;62290;59.420;17.842;2023-04-25T11:26:24;161.30;;;77.95;;
14292;SDS011;62290;59.420;17.842;2023-04-25T11:28:56;146.82;;;72.32;;
14292;SDS011;62290;59.420;17.842;2023-04-25T11:31:25;134.68;;;68.03;;
14292;SDS011;62290;59.420;17.842;2023-04-25T11:33:53;123.65;;;60.97;;
14292;SDS011;62290;59.420;17.842;2023-04-25T11:36:22;103.50;;;53.22;;
14292;SDS011;62290;59.420;17.842;2023-04-25T11:38:50;99.68;;;49.22;;
14292;SDS011;62290;59.420;17.842;2023-04-25T11:41:20;92.82;;;47.42;;
14292;SDS011;62290;59.420;17.842;2023-04-25T11:43:49;82.88;;;41.55;;
14292;SDS011;62290;59.420;17.842;2023-04-25T11:46:18;76.15;;;38.45;;
14292;SDS011;62290;59.420;17.842;2023-04-25T11:48:47;71.72;;;37.40;;
14292;SDS011;62290;59.420;17.842;2023-04-25T11:51:17;58.38;;;30.92;;
14292;SDS011;62290;59.420;17.842;2023-04-25T11:53:45;57.72;;;29.55;;
14292;SDS011;62290;59.420;17.842;2023-04-25T11:56:13;51.15;;;27.05;;
14292;SDS011;62290;59.420;17.842;2023-04-25T11:58:55;50.17;;;25.73;;
14292;SDS011;62290;59.420;17.842;2023-04-25T12:01:25;45.08;;;22.88;;
14292;SDS011;62290;59.420;17.842;2023-04-25T12:04:10;46.33;;;21.80;;
14292;SDS011;62290;59.420;17.842;2023-04-25T12:06:40;36.83;;;19.55;;
14292;SDS011;62290;59.420;17.842;2023-04-25T12:09:09;33.75;;;18.45;;
14292;SDS011;62290;59.420;17.842;2023-04-25T12:11:43;31.38;;;18.63;;
14292;SDS011;62290;59.420;17.842;2023-04-25T12:14:20;31.38;;;17.42;;
14292;SDS011;62290;59.420;17.842;2023-04-25T12:16:50;29.95;;;16.52;;
14292;SDS011;62290;59.420;17.842;2023-04-25T12:19:19;27.27;;;14.38;;
14292;SDS011;62290;59.420;17.842;2023-04-25T12:21:48;27.20;;;14.57;;
14292;SDS011;62290;59.420;17.842;2023-04-25T12:24:25;26.35;;;13.68;;
14292;SDS011;62290;59.420;17.842;2023-04-25T12:26:58;22.17;;;13.52;;
14292;SDS011;62290;59.420;17.842;2023-04-25T12:29:30;27.95;;;12.20;;
14292;SDS011;62290;59.420;17.842;2023-04-25T12:32:14;17.70;;;10.00;;
14292;SDS011;62290;59.420;17.842;2023-04-25T12:34:42;18.88;;;10.15;;
14292;SDS011;62290;59.420;17.842;2023-04-25T12:37:10;18.73;;;10.07;;
14292;SDS011;62290;59.420;17.842;2023-04-25T12:39:38;16.10;;;9.48;;
14292;SDS011;62290;59.420;17.842;2023-04-25T12:42:07;15.13;;;8.70;;
14292;SDS011;62290;59.420;17.842;2023-04-25T12:44:39;17.85;;;10.07;;
14292;SDS011;62290;59.420;17.842;2023-04-25T12:47:08;17.40;;;9.07;;
14292;SDS011;62290;59.420;17.842;2023-04-25T12:49:36;14.05;;;8.23;;
14292;SDS011;62290;59.420;17.842;2023-04-25T12:52:04;16.55;;;8.40;;
14292;SDS011;62290;59.420;17.842;2023-04-25T12:54:32;16.50;;;8.05;;
14292;SDS011;62290;59.420;17.842;2023-04-25T12:57:00;15.18;;;7.45;;
14292;SDS011;62290;59.420;17.842;2023-04-25T12:59:29;12.48;;;6.53;;
14292;SDS011;62290;59.420;17.842;2023-04-25T13:01:59;10.98;;;6.50;;
14292;SDS011;62290;59.420;17.842;2023-04-25T13:04:27;8.57;;;5.55;;
14292;SDS011;62290;59.420;17.842;2023-04-25T13:06:55;12.38;;;5.75;;
14292;SDS011;62290;59.420;17.842;2023-04-25T13:09:23;11.95;;;5.97;;
14292;SDS011;62290;59.420;17.842;2023-04-25T13:11:51;8.25;;;5.35;;
14292;SDS011;62290;59.420;17.842;2023-04-25T13:14:23;8.02;;;5.30;;
14292;SDS011;62290;59.420;17.842;2023-04-25T13:16:51;13.27;;;6.43;;
14292;SDS011;62290;59.420;17.842;2023-04-25T13:19:22;8.18;;;4.75;;
14292;SDS011;62290;59.420;17.842;2023-04-25T13:21:50;7.90;;;5.03;;
14292;SDS011;62290;59.420;17.842;2023-04-25T13:24:18;5.82;;;4.43;;
14292;SDS011;62290;59.420;17.842;2023-04-25T13:26:46;8.73;;;4.25;;
14292;SDS011;62290;59.420;17.842;2023-04-25T13:29:15;7.05;;;4.82;;
14292;SDS011;62290;59.420;17.842;2023-04-25T13:31:43;7.90;;;4.35;;
14292;SDS011;62290;59.420;17.842;2023-04-25T13:34:11;8.77;;;4.75;;
14292;SDS011;62290;59.420;17.842;2023-04-25T13:36:40;6.38;;;4.05;;
14292;SDS011;62290;59.420;17.842;2023-04-25T13:39:09;7.53;;;4.00;;
14292;SDS011;62290;59.420;17.842;2023-04-25T13:41:38;5.43;;;3.95;;
14292;SDS011;62290;59.420;17.842;2023-04-25T13:44:07;6.60;;;4.20;;
14292;SDS011;62290;59.420;17.842;2023-04-25T13:46:35;6.70;;;3.47;;
14292;SDS011;62290;59.420;17.842;2023-04-25T13:49:06;7.15;;;3.63;;
14292;SDS011;62290;59.420;17.842;2023-04-25T13:51:38;4.93;;;3.20;;
14292;SDS011;62290;59.420;17.842;2023-04-25T13:54:08;4.93;;;3.30;;
14292;SDS011;62290;59.420;17.842;2023-04-25T13:56:37;9.63;;;3.55;;
14292;SDS011;62290;59.420;17.842;2023-04-25T13:59:05;7.82;;;3.20;;
14292;SDS011;62290;59.420;17.842;2023-04-25T14:01:33;4.88;;;3.03;;
14292;SDS011;62290;59.420;17.842;2023-04-25T14:04:02;3.97;;;2.88;;
14292;SDS011;62290;59.420;17.842;2023-04-25T14:06:31;6.00;;;3.40;;
14292;SDS011;62290;59.420;17.842;2023-04-25T14:09:01;5.50;;;3.45;;
14292;SDS011;62290;59.420;17.842;2023-04-25T14:11:30;3.42;;;2.50;;
14292;SDS011;62290;59.420;17.842;2023-04-25T14:13:59;3.92;;;3.00;;
14292;SDS011;62290;59.420;17.842;2023-04-25T14:16:27;6.57;;;2.70;;
14292;SDS011;62290;59.420;17.842;2023-04-25T14:18:55;7.65;;;2.50;;
14292;SDS011;62290;59.420;17.842;2023-04-25T14:21:24;4.50;;;2.53;;
14292;SDS011;62290;59.420;17.842;2023-04-25T14:23:53;3.63;;;2.40;;
14292;SDS011;62290;59.420;17.842;2023-04-25T14:26:22;4.40;;;2.10;;
14292;SDS011;62290;59.420;17.842;2023-04-25T14:28:50;4.10;;;2.05;;
14292;SDS011;62290;59.420;17.842;2023-04-25T14:31:19;3.45;;;2.78;;
14292;SDS011;62290;59.420;17.842;2023-04-25T14:33:47;4.57;;;2.22;;
14292;SDS011;62290;59.420;17.842;2023-04-25T14:36:15;3.60;;;2.00;;
14292;SDS011;62290;59.420;17.842;2023-04-25T14:38:44;3.17;;;2.30;;
14292;SDS011;62290;59.420;17.842;2023-04-25T14:41:12;6.40;;;2.53;;
14292;SDS011;62290;59.420;17.842;2023-04-25T14:43:41;3.97;;;2.30;;
14292;SDS011;62290;59.420;17.842;2023-04-25T14:46:09;3.30;;;2.40;;
14292;SDS011;62290;59.420;17.842;2023-04-25T14:48:38;6.47;;;2.60;;
14292;SDS011;62290;59.420;17.842;2023-04-25T14:51:06;3.90;;;2.10;;
14292;SDS011;62290;59.420;17.842;2023-04-25T14:53:34;4.18;;;2.42;;
14292;SDS011;62290;59.420;17.842;2023-04-25T14:56:03;4.65;;;2.00;;